F/V Louis Gaetane 2 — FO2401 — position and weather

sailwx.info

Track history (hours):
 
Tides and Currents Weather Stations Pressure Air Temp Water Temp Dewpoint Dewpoint Depression Visibility Wind Speed Wind Dir Waves Ship Positions

F/V Louis Gaetane 2

Last reported at 2017-Aug-14 16:50 UTC. Time now 2017-Aug-17 07:58 UTC.
Position N 43°24' E 003°42'.

Length 25 m.

Type: Fishing. MMSI: 227913000.

Date/timePositionNaut miles runAvg speedWind from/ knotsBaromVisibWave heightAir tempDewpointWater temp
2017-Aug-14 16:50N 43°24' E 003°42'0 0.0
2017-Aug-14 15:32N 43°24' E 003°42'0 0.0
2017-Aug-14 15:29N 43°24' E 003°42'0 0.0
2017-Aug-14 14:44N 43°24' E 003°42'0 0.0
2017-Aug-14 14:29N 43°24' E 003°42'0 0.0
2017-Aug-14 13:59N 43°24' E 003°42'0 0.0
2017-Aug-14 13:29N 43°24' E 003°42'0 0.0
2017-Aug-14 12:47N 43°24' E 003°42'0 0.0
2017-Aug-14 12:29N 43°24' E 003°42'21 6.0
2017-Aug-14 09:01N 43°16' E 004°08'0 8.9
2017-Aug-14 09:00N 43°16' E 004°08'4 9.0
2017-Aug-14 08:30N 43°14' E 004°14'4 8.8
2017-Aug-14 08:00N 43°12' E 004°19'3 5.3
2017-Aug-14 07:29N 43°11' E 004°23'0 0.5
2017-Aug-14 06:59N 43°11' E 004°23'2 3.0
2017-Aug-14 06:10N 43°12' E 004°20'1 4.4
2017-Aug-14 06:00N 43°13' E 004°20'2 4.3
2017-Aug-14 05:30N 43°14' E 004°17'2 4.4
2017-Aug-14 05:00N 43°14' E 004°14'2 4.4
2017-Aug-14 04:30N 43°15' E 004°12'2 4.4
2017-Aug-14 04:00N 43°16' E 004°09'2 4.3
2017-Aug-14 03:30N 43°17' E 004°06'2 4.3
2017-Aug-14 03:00N 43°17' E 004°03'4 4.3
2017-Aug-14 02:05N 43°19' E 003°58'0 4.3
2017-Aug-14 02:00N 43°19' E 003°58'3 4.6
2017-Aug-14 01:27N 43°20' E 003°54'  
2017-Aug-11 08:39N 43°17' E 004°03'1 4.2
2017-Aug-11 08:26N 43°17' E 004°04'2 4.2
2017-Aug-11 07:56N 43°17' E 004°07'2 4.1
2017-Aug-11 07:26N 43°16' E 004°10'3 4.0
2017-Aug-11 06:48N 43°15' E 004°13'2 7.2
2017-Aug-11 06:28N 43°16' E 004°10'1 2.0
2017-Aug-11 06:00N 43°16' E 004°09'2 4.4
2017-Aug-11 05:30N 43°17' E 004°06'  
2017-Aug-07 14:47N 43°24' E 003°42'0 0.2
2017-Aug-07 14:29N 43°24' E 003°42'1 1.2
2017-Aug-07 13:38N 43°23' E 003°42'211.1
2017-Aug-07 13:28N 43°21' E 003°44'  
Track history (hours):
 
Tides and Currents Weather Stations Pressure Air Temp Water Temp Dewpoint Dewpoint Depression Visibility Wind Speed Wind Dir Waves Ship Positions

F/V Louis Gaetane 2

Last reported at 2017-Aug-14 16:50 UTC. Time now 2017-Aug-17 07:58 UTC.
Position N 43°24' E 003°42'.

Length 25 m.

Type: Fishing. MMSI: 227913000.

Date/timePositionNaut miles runAvg speedWind from/ knotsBaromVisibWave heightAir tempDewpointWater temp
2017-Aug-14 16:50N 43°24' E 003°42'0 0.0
2017-Aug-14 15:32N 43°24' E 003°42'0 0.0
2017-Aug-14 15:29N 43°24' E 003°42'0 0.0
2017-Aug-14 14:44N 43°24' E 003°42'0 0.0
2017-Aug-14 14:29N 43°24' E 003°42'0 0.0
2017-Aug-14 13:59N 43°24' E 003°42'0 0.0
2017-Aug-14 13:29N 43°24' E 003°42'0 0.0
2017-Aug-14 12:47N 43°24' E 003°42'0 0.0
2017-Aug-14 12:29N 43°24' E 003°42'21 6.0
2017-Aug-14 09:01N 43°16' E 004°08'0 8.9
2017-Aug-14 09:00N 43°16' E 004°08'4 9.0
2017-Aug-14 08:30N 43°14' E 004°14'4 8.8
2017-Aug-14 08:00N 43°12' E 004°19'3 5.3
2017-Aug-14 07:29N 43°11' E 004°23'0 0.5
2017-Aug-14 06:59N 43°11' E 004°23'2 3.0
2017-Aug-14 06:10N 43°12' E 004°20'1 4.4
2017-Aug-14 06:00N 43°13' E 004°20'2 4.3
2017-Aug-14 05:30N 43°14' E 004°17'2 4.4
2017-Aug-14 05:00N 43°14' E 004°14'2 4.4
2017-Aug-14 04:30N 43°15' E 004°12'2 4.4
2017-Aug-14 04:00N 43°16' E 004°09'2 4.3
2017-Aug-14 03:30N 43°17' E 004°06'2 4.3
2017-Aug-14 03:00N 43°17' E 004°03'4 4.3
2017-Aug-14 02:05N 43°19' E 003°58'0 4.3
2017-Aug-14 02:00N 43°19' E 003°58'3 4.6
2017-Aug-14 01:27N 43°20' E 003°54'  
2017-Aug-11 08:39N 43°17' E 004°03'1 4.2
2017-Aug-11 08:26N 43°17' E 004°04'2 4.2
2017-Aug-11 07:56N 43°17' E 004°07'2 4.1
2017-Aug-11 07:26N 43°16' E 004°10'3 4.0
2017-Aug-11 06:48N 43°15' E 004°13'2 7.2
2017-Aug-11 06:28N 43°16' E 004°10'1 2.0
2017-Aug-11 06:00N 43°16' E 004°09'2 4.4
2017-Aug-11 05:30N 43°17' E 004°06'  
2017-Aug-07 14:47N 43°24' E 003°42'0 0.2
2017-Aug-07 14:29N 43°24' E 003°42'1 1.2
2017-Aug-07 13:38N 43°23' E 003°42'211.1
2017-Aug-07 13:28N 43°21' E 003°44'  

Dump ship's entire track history